createdAt,value
2017-11-12T00:01:32.169Z,48.50
2017-11-12T00:04:01.919Z,40.50
2017-11-12T00:06:30.214Z,48.70
2017-11-12T00:08:58.916Z,42.10
2017-11-12T00:11:28.231Z,49.20
2017-11-12T00:13:56.927Z,42.23
2017-11-12T00:16:25.219Z,41.10
2017-11-12T00:18:53.575Z,42.53
2017-11-12T00:21:23.384Z,39.43
2017-11-12T00:23:51.663Z,45.47
2017-11-12T00:26:20.007Z,37.90
2017-11-12T00:28:48.281Z,47.50
2017-11-12T00:31:16.568Z,43.27
2017-11-12T00:33:45.303Z,38.70
2017-11-12T00:36:13.991Z,40.90
2017-11-12T00:38:43.411Z,44.97
2017-11-12T00:41:12.531Z,38.07
2017-11-12T00:43:42.180Z,39.90
2017-11-12T00:46:11.472Z,41.07
2017-11-12T00:48:40.259Z,35.60
2017-11-12T00:51:09.672Z,40.90
2017-11-12T00:53:37.948Z,44.13
2017-11-12T00:56:07.052Z,43.13
2017-11-12T00:58:36.472Z,43.87
2017-11-12T01:01:05.148Z,40.23
2017-11-12T01:03:33.477Z,37.03
2017-11-12T01:06:01.780Z,41.60
2017-11-12T01:08:31.564Z,42.03
2017-11-12T01:11:00.023Z,36.37
2017-11-12T01:13:28.299Z,35.30
2017-11-12T01:15:56.588Z,37.70
2017-11-12T01:18:25.510Z,39.80
2017-11-12T01:20:54.189Z,38.50
2017-11-12T01:23:22.493Z,46.80
2017-11-12T01:25:50.860Z,36.27
2017-11-12T01:28:19.919Z,36.10
2017-11-12T01:30:49.350Z,35.83
2017-11-12T01:33:18.559Z,31.77
2017-11-12T01:35:47.611Z,34.93
2017-11-12T01:38:15.910Z,33.37
2017-11-12T01:40:45.144Z,34.80
2017-11-12T01:43:13.423Z,35.13
2017-11-12T01:45:41.770Z,36.70
2017-11-12T01:48:11.237Z,34.43
2017-11-12T01:50:39.520Z,37.70
2017-11-12T01:53:07.811Z,39.03
2017-11-12T01:55:36.984Z,35.70
2017-11-12T01:58:06.423Z,36.50
2017-11-12T02:00:34.702Z,39.60
2017-11-12T02:03:03.037Z,31.70
2017-11-12T02:05:32.451Z,34.43
2017-11-12T02:08:02.087Z,34.00
2017-11-12T02:10:34.605Z,34.17
2017-11-12T02:13:02.884Z,38.50
2017-11-12T02:15:31.160Z,32.57
2017-11-12T02:17:59.492Z,39.03
2017-11-12T02:20:27.776Z,30.77
2017-11-12T02:22:56.824Z,34.30
2017-11-12T02:25:28.508Z,36.77
2017-11-12T02:27:57.186Z,33.50
2017-11-12T02:30:25.468Z,33.20
2017-11-12T02:32:53.811Z,34.43
2017-11-12T02:35:24.126Z,31.87
2017-11-12T02:37:52.414Z,35.87
2017-11-12T02:40:21.564Z,35.90
2017-11-12T02:42:49.863Z,38.97
2017-11-12T02:45:18.142Z,31.10
2017-11-12T02:47:46.582Z,32.13
2017-11-12T02:50:14.870Z,35.77
2017-11-12T02:52:44.280Z,32.37
2017-11-12T02:55:13.398Z,32.40
2017-11-12T02:57:43.199Z,36.77
2017-11-12T03:00:12.261Z,36.67
2017-11-12T03:02:41.348Z,40.03
2017-11-12T03:05:10.035Z,37.47
2017-11-12T03:07:38.819Z,42.80
2017-11-12T03:10:07.145Z,50.23
2017-11-12T03:12:35.420Z,40.90
2017-11-12T03:15:03.703Z,43.30
2017-11-12T03:17:33.423Z,42.37
2017-11-12T03:20:01.588Z,39.93
2017-11-12T03:22:29.898Z,47.47
2017-11-12T03:24:58.226Z,44.53
2017-11-12T03:27:26.506Z,45.87
2017-11-12T03:29:54.786Z,41.60
2017-11-12T03:32:23.123Z,37.23
2017-11-12T03:34:52.543Z,38.90
2017-11-12T03:37:21.217Z,39.97
2017-11-12T03:39:49.534Z,40.10
2017-11-12T03:42:17.841Z,37.30
2017-11-12T03:44:46.516Z,36.87
2017-11-12T03:47:14.919Z,39.63
2017-11-12T03:49:43.199Z,43.63
2017-11-12T03:52:12.982Z,43.50
2017-11-12T03:54:41.327Z,38.23
2017-11-12T03:57:10.976Z,48.87
2017-11-12T03:59:39.151Z,38.70
2017-11-12T04:02:07.494Z,47.87
2017-11-12T04:04:35.775Z,39.77
2017-11-12T04:07:05.407Z,37.93
2017-11-12T04:09:34.020Z,36.70
2017-11-12T04:12:03.064Z,34.97
2017-11-12T04:14:31.362Z,39.37
2017-11-12T04:17:01.955Z,37.47
2017-11-12T04:19:30.111Z,39.37
2017-11-12T04:21:59.176Z,34.90
2017-11-12T04:24:27.519Z,35.03
2017-11-12T04:26:56.191Z,32.37
2017-11-12T04:29:24.494Z,36.40
2017-11-12T04:31:53.651Z,40.87
2017-11-12T04:34:22.704Z,32.07
2017-11-12T04:36:52.344Z,34.73
2017-11-12T04:39:21.828Z,38.37
2017-11-12T04:41:51.458Z,31.43
2017-11-12T04:44:19.614Z,32.97
2017-11-12T04:46:47.959Z,33.57
2017-11-12T04:49:17.011Z,37.13
2017-11-12T04:51:45.294Z,35.97
2017-11-12T04:54:14.012Z,33.80
2017-11-12T04:56:43.056Z,35.97
2017-11-12T04:59:12.471Z,34.33
2017-11-12T05:01:41.200Z,31.67
2017-11-12T05:04:09.496Z,33.83
2017-11-12T05:06:37.793Z,33.47
2017-11-12T05:09:06.548Z,43.73
2017-11-12T05:11:34.855Z,34.70
2017-11-12T05:14:04.665Z,33.77
2017-11-12T05:16:33.011Z,36.10
2017-11-12T05:19:01.306Z,32.70
2017-11-12T05:21:29.585Z,33.30
2017-11-12T05:23:58.064Z,37.70
2017-11-12T05:26:26.353Z,41.00
2017-11-12T05:28:55.392Z,41.83
2017-11-12T05:31:23.753Z,34.70
2017-11-12T05:33:52.062Z,39.10
2017-11-12T05:36:21.119Z,40.77
2017-11-12T05:38:50.212Z,33.07
2017-11-12T05:41:18.492Z,40.10
2017-11-12T05:43:46.774Z,36.73
2017-11-12T05:46:16.481Z,39.30
2017-11-12T05:48:45.037Z,41.83
2017-11-12T05:51:13.323Z,41.40
2017-11-12T05:53:42.998Z,36.43
2017-11-12T05:56:12.297Z,51.67
2017-11-12T05:58:42.039Z,34.20
2017-11-12T06:01:11.542Z,38.40
2017-11-12T06:03:41.319Z,37.60
2017-11-12T06:06:10.995Z,40.77
2017-11-12T06:08:39.201Z,37.37
2017-11-12T06:11:08.219Z,39.57
2017-11-12T06:13:37.703Z,37.90
2017-11-12T06:16:07.487Z,42.37
2017-11-12T06:18:36.164Z,36.63
2017-11-12T06:21:04.504Z,39.43
2017-11-12T06:23:32.802Z,41.93
2017-11-12T06:26:01.115Z,35.33
2017-11-12T06:28:29.855Z,38.27
2017-11-12T06:30:58.914Z,41.07
2017-11-12T06:33:27.203Z,43.20
2017-11-12T06:35:56.329Z,45.73
2017-11-12T06:38:24.624Z,40.63
2017-11-12T06:40:52.922Z,46.43
2017-11-12T06:43:23.136Z,47.63
2017-11-12T06:45:51.701Z,44.00
2017-11-12T06:48:21.487Z,46.07
2017-11-12T06:50:49.818Z,44.23
2017-11-12T06:53:18.107Z,48.13
2017-11-12T06:55:47.180Z,42.30
2017-11-12T06:58:16.451Z,45.70
2017-11-12T07:00:46.240Z,34.53
2017-11-12T07:03:14.518Z,38.50
2017-11-12T07:05:42.848Z,42.97
2017-11-12T07:08:11.535Z,51.97
2017-11-12T07:10:39.821Z,42.20
2017-11-12T07:13:09.533Z,37.70
2017-11-12T07:15:38.111Z,38.03
2017-11-12T07:18:06.410Z,42.63
2017-11-12T07:20:34.748Z,43.33
2017-11-12T07:23:04.179Z,40.37
2017-11-12T07:25:32.460Z,36.00
2017-11-12T07:28:03.527Z,41.10
2017-11-12T07:30:31.687Z,44.97
2017-11-12T07:32:59.974Z,38.03
2017-11-12T07:35:29.060Z,45.83
2017-11-12T07:37:57.340Z,41.10
2017-11-12T07:40:26.403Z,45.63
2017-11-12T07:42:55.516Z,40.83
2017-11-12T07:45:24.207Z,38.50
2017-11-12T07:47:52.488Z,40.50
2017-11-12T07:50:21.593Z,37.43
2017-11-12T07:52:49.874Z,40.20
2017-11-12T07:55:18.152Z,45.87
2017-11-12T07:57:46.508Z,37.53
2017-11-12T08:00:16.295Z,47.27
2017-11-12T08:02:45.972Z,35.00
2017-11-12T08:05:14.172Z,41.50
2017-11-12T08:07:42.456Z,48.63
2017-11-12T08:10:10.792Z,45.03
2017-11-12T08:12:39.072Z,37.90
2017-11-12T08:15:07.347Z,46.73
2017-11-12T08:17:37.189Z,43.33
2017-11-12T08:20:06.249Z,46.23
2017-11-12T08:22:34.947Z,43.97
2017-11-12T08:25:04.428Z,41.20
2017-11-12T08:27:32.710Z,45.27
2017-11-12T08:30:01.395Z,43.63
2017-11-12T08:32:30.141Z,51.03
2017-11-12T08:34:58.827Z,45.77
2017-11-12T08:37:27.500Z,51.13
2017-11-12T08:39:56.398Z,55.10
2017-11-12T08:42:24.682Z,52.80
2017-11-12T08:44:54.322Z,50.03
2017-11-12T08:47:22.523Z,44.97
2017-11-12T08:49:50.838Z,52.70
2017-11-12T08:52:20.251Z,44.27
2017-11-12T08:54:48.613Z,50.43
2017-11-12T08:57:17.660Z,49.67
2017-11-12T08:59:46.712Z,47.93
2017-11-12T09:02:15.457Z,49.67
2017-11-12T09:04:43.753Z,43.57
2017-11-12T09:07:12.036Z,40.63
2017-11-12T09:09:41.991Z,29.70
2017-11-12T09:12:11.411Z,24.40
2017-11-12T09:14:40.475Z,36.80
2017-11-12T09:17:10.010Z,33.63
2017-11-12T09:19:39.444Z,38.97
2017-11-12T09:22:07.743Z,37.20
2017-11-12T09:24:37.442Z,39.80
2017-11-12T09:27:06.400Z,32.27
2017-11-12T09:29:36.031Z,29.83
2017-11-12T09:32:04.317Z,29.93
2017-11-12T09:34:32.592Z,32.37
2017-11-12T09:37:02.390Z,37.23
2017-11-12T09:39:31.496Z,29.40
2017-11-12T09:41:59.784Z,32.73
2017-11-12T09:44:29.223Z,31.00
2017-11-12T09:46:57.964Z,24.97
2017-11-12T09:49:27.758Z,38.20
2017-11-12T09:51:57.398Z,38.80
2017-11-12T09:54:26.396Z,32.63
2017-11-12T09:56:55.064Z,36.37
2017-11-12T09:59:23.384Z,41.77
2017-11-12T10:01:53.067Z,30.13
2017-11-12T10:04:22.004Z,32.40
2017-11-12T10:06:50.276Z,36.90
2017-11-12T10:09:18.616Z,33.57
2017-11-12T10:11:46.931Z,41.63
2017-11-12T10:14:15.220Z,34.70
2017-11-12T10:16:44.326Z,39.87
2017-11-12T10:19:12.605Z,41.03
2017-11-12T10:21:41.277Z,44.43
2017-11-12T10:24:09.590Z,36.90
2017-11-12T10:26:39.023Z,39.03
2017-11-12T10:29:08.671Z,34.73
2017-11-12T10:31:37.681Z,38.23
2017-11-12T10:34:07.319Z,36.80
2017-11-12T10:36:37.180Z,42.60
2017-11-12T10:39:05.491Z,33.43
2017-11-12T10:41:35.136Z,31.80
2017-11-12T10:44:03.353Z,30.00
2017-11-12T10:46:31.643Z,29.03
2017-11-12T10:49:01.427Z,24.40
2017-11-12T10:51:30.937Z,27.47
2017-11-12T10:54:00.587Z,26.47
2017-11-12T10:56:28.746Z,31.50
2017-11-12T10:58:57.090Z,21.57
2017-11-12T11:01:26.141Z,20.43
2017-11-12T11:03:54.420Z,20.93
2017-11-12T11:06:22.756Z,20.00
2017-11-12T11:08:51.458Z,18.90
2017-11-12T11:11:19.743Z,16.43
2017-11-12T11:13:48.861Z,22.10
2017-11-12T11:16:17.534Z,14.93
2017-11-12T11:18:47.191Z,14.20
2017-11-12T11:21:17.729Z,16.70
2017-11-12T11:23:47.028Z,14.33
2017-11-12T11:26:15.326Z,13.47
2017-11-12T11:28:45.030Z,12.17
2017-11-12T11:31:13.589Z,15.67
2017-11-12T11:33:41.876Z,12.97
2017-11-12T11:36:11.569Z,14.17
2017-11-12T11:38:40.514Z,12.30
2017-11-12T11:41:08.803Z,17.93
2017-11-12T11:43:37.141Z,16.13
2017-11-12T11:46:06.930Z,15.53
2017-11-12T11:48:35.214Z,14.07
2017-11-12T11:51:04.319Z,16.70
2017-11-12T11:53:33.016Z,16.57
2017-11-12T11:56:01.303Z,16.43
2017-11-12T11:58:31.001Z,17.63
2017-11-12T12:00:59.955Z,14.87
2017-11-12T12:03:29.012Z,12.93
2017-11-12T12:05:57.351Z,12.03
2017-11-12T12:08:25.671Z,12.50
2017-11-12T12:10:53.980Z,13.30
2017-11-12T12:13:23.594Z,13.40
2017-11-12T12:15:51.915Z,13.20
2017-11-12T12:18:20.237Z,14.30
2017-11-12T12:20:48.563Z,13.33
2017-11-12T12:23:17.987Z,13.40
2017-11-12T12:25:46.281Z,11.43
2017-11-12T12:28:14.607Z,10.43
2017-11-12T12:30:44.396Z,10.40
2017-11-12T12:33:13.441Z,11.40
2017-11-12T12:35:43.259Z,9.87
2017-11-12T12:38:12.887Z,9.33
2017-11-12T12:40:42.379Z,9.43
2017-11-12T12:43:11.344Z,9.87
2017-11-12T12:45:40.964Z,8.10
2017-11-12T12:48:09.119Z,10.20
2017-11-12T12:50:38.863Z,9.10
2017-11-12T12:53:07.411Z,9.33
2017-11-12T12:55:35.695Z,10.93
2017-11-12T12:58:04.039Z,11.57
2017-11-12T13:00:32.324Z,9.60
2017-11-12T13:03:00.608Z,10.50
2017-11-12T13:05:30.104Z,10.73
2017-11-12T13:07:59.738Z,10.03
2017-11-12T13:10:28.311Z,9.40
2017-11-12T13:12:56.678Z,14.27
2017-11-12T13:15:24.982Z,9.20
2017-11-12T13:17:54.608Z,8.83
2017-11-12T13:20:23.197Z,8.13
2017-11-12T13:22:51.476Z,9.20
2017-11-12T13:25:19.772Z,9.37
2017-11-12T13:27:48.860Z,8.07
2017-11-12T13:30:17.145Z,9.60
2017-11-12T13:32:45.427Z,7.47
2017-11-12T13:35:14.504Z,7.23
2017-11-12T13:37:43.196Z,7.13
2017-11-12T13:40:11.457Z,7.73
2017-11-12T13:42:41.139Z,8.33
2017-11-12T13:45:09.693Z,5.00
2017-11-12T13:47:39.332Z,5.30
2017-11-12T13:50:08.690Z,5.57
2017-11-12T13:52:36.963Z,3.90
2017-11-12T13:55:06.403Z,4.60
2017-11-12T13:57:36.084Z,4.20
2017-11-12T14:00:05.593Z,3.80
2017-11-12T14:02:34.161Z,2.90
2017-11-12T14:05:03.612Z,3.03
2017-11-12T14:07:32.646Z,5.10
2017-11-12T14:10:02.076Z,3.43
2017-11-12T14:12:30.383Z,3.93
2017-11-12T14:14:59.063Z,3.77
2017-11-12T14:17:28.849Z,3.43
2017-11-12T14:19:57.232Z,4.00
2017-11-12T14:22:25.508Z,3.10
2017-11-12T14:24:54.572Z,3.70
2017-11-12T14:27:23.681Z,2.90
2017-11-12T14:29:51.952Z,3.30
2017-11-12T14:32:20.239Z,3.37
2017-11-12T14:34:48.555Z,2.80
2017-11-12T14:37:17.591Z,2.97
2017-11-12T14:39:46.653Z,2.40
2017-11-12T14:42:18.428Z,3.03
2017-11-12T14:44:47.107Z,2.37
2017-11-12T14:47:15.419Z,3.07
2017-11-12T14:49:44.520Z,2.27
2017-11-12T14:52:13.932Z,35.10
2017-11-12T14:54:42.631Z,12.53
2017-11-12T14:57:11.749Z,4.47
2017-11-12T14:59:44.722Z,4.20
2017-11-12T15:02:13.044Z,2.60
2017-11-12T15:04:41.311Z,2.87
2017-11-12T15:07:09.602Z,4.13
2017-11-12T15:09:37.958Z,2.47
2017-11-12T15:12:06.237Z,3.33
2017-11-12T15:14:34.512Z,3.77
2017-11-12T15:17:02.836Z,3.67
2017-11-12T15:19:32.242Z,3.33
2017-11-12T15:22:00.527Z,4.30
2017-11-12T15:24:30.020Z,2.43
2017-11-12T15:26:59.062Z,4.77
2017-11-12T15:29:27.332Z,2.80
2017-11-12T15:31:56.436Z,2.97
2017-11-12T15:34:24.711Z,3.20
2017-11-12T15:36:54.523Z,3.27
2017-11-12T15:39:23.275Z,3.20
2017-11-12T15:41:51.553Z,6.40
2017-11-12T15:44:21.368Z,3.97
2017-11-12T15:46:49.705Z,6.03
2017-11-12T15:49:17.995Z,7.90
2017-11-12T15:51:46.266Z,3.57
2017-11-12T15:54:15.953Z,5.80
2017-11-12T15:56:44.105Z,9.13
2017-11-12T15:59:12.402Z,5.03
2017-11-12T16:01:40.720Z,10.33
2017-11-12T16:04:09.772Z,4.50
2017-11-12T16:06:38.816Z,3.37
2017-11-12T16:09:07.171Z,2.93
2017-11-12T16:11:36.216Z,3.07
2017-11-12T16:14:05.854Z,3.23
2017-11-12T16:16:35.399Z,5.90
2017-11-12T16:19:04.459Z,5.93
2017-11-12T16:21:32.732Z,5.30
2017-11-12T16:24:01.446Z,3.50
2017-11-12T16:26:31.242Z,4.97
2017-11-12T16:28:59.509Z,7.40
2017-11-12T16:31:27.823Z,5.80
2017-11-12T16:33:56.103Z,6.33
2017-11-12T16:36:24.391Z,5.10
2017-11-12T16:38:54.064Z,6.40
2017-11-12T16:41:22.222Z,10.20
2017-11-12T16:43:51.628Z,5.83
2017-11-12T16:46:21.328Z,16.53
2017-11-12T16:48:49.903Z,20.43
2017-11-12T16:51:18.184Z,23.83
2017-11-12T16:53:48.043Z,17.93
2017-11-12T16:56:17.693Z,7.73
2017-11-12T16:58:46.255Z,7.27
2017-11-12T17:01:15.923Z,7.77
2017-11-12T17:03:44.491Z,6.70
2017-11-12T17:06:12.761Z,11.40
2017-11-12T17:08:41.910Z,8.63
2017-11-12T17:11:11.346Z,9.63
2017-11-12T17:13:40.966Z,7.60
2017-11-12T17:16:09.299Z,6.30
2017-11-12T17:18:37.572Z,6.60
2017-11-12T17:21:06.615Z,7.10
2017-11-12T17:23:36.287Z,8.43
2017-11-12T17:26:04.457Z,6.73
2017-11-12T17:28:32.732Z,7.00
2017-11-12T17:31:02.180Z,8.00
2017-11-12T17:33:31.803Z,7.90
2017-11-12T17:35:59.974Z,8.57
2017-11-12T17:38:28.299Z,8.50
2017-11-12T17:40:56.588Z,8.73
2017-11-12T17:43:24.864Z,8.67
2017-11-12T17:45:53.191Z,9.60
2017-11-12T17:48:21.477Z,8.67
2017-11-12T17:50:49.753Z,10.43
2017-11-12T17:53:18.859Z,8.70
2017-11-12T17:55:47.136Z,7.30
2017-11-12T17:58:16.764Z,8.40
2017-11-12T18:00:46.315Z,8.07
2017-11-12T18:03:15.821Z,8.50
2017-11-12T18:05:43.972Z,6.63
2017-11-12T18:08:12.308Z,8.70
2017-11-12T18:10:40.583Z,7.90
2017-11-12T18:13:09.629Z,7.67
2017-11-12T18:15:37.976Z,9.07
2017-11-12T18:18:06.268Z,8.50
2017-11-12T18:20:35.931Z,7.50
2017-11-12T18:23:04.921Z,7.43
2017-11-12T18:25:33.965Z,7.97
2017-11-12T18:28:02.240Z,8.10
2017-11-12T18:30:31.347Z,7.57
2017-11-12T18:33:00.391Z,8.37
2017-11-12T18:35:28.700Z,8.77
2017-11-12T18:37:57.024Z,10.53
2017-11-12T18:40:25.296Z,8.90
2017-11-12T18:42:53.595Z,13.93
2017-11-12T18:45:23.299Z,8.87
2017-11-12T18:47:51.853Z,9.30
2017-11-12T18:50:20.163Z,8.30
2017-11-12T18:52:48.918Z,9.47
2017-11-12T18:55:32.902Z,8.40
2017-11-12T18:58:02.002Z,10.40
2017-11-12T19:00:36.046Z,9.83
2017-11-12T19:03:05.965Z,9.90
2017-11-12T19:05:39.916Z,9.40
2017-11-12T19:08:08.243Z,11.40
2017-11-12T19:10:38.032Z,11.10
2017-11-12T19:13:06.315Z,11.87
2017-11-12T19:15:34.665Z,9.90
2017-11-12T19:18:06.420Z,14.90
2017-11-12T19:23:35.439Z,11.33
2017-11-12T19:26:11.040Z,14.00
2017-11-12T19:28:43.062Z,9.60
2017-11-12T19:31:12.136Z,9.87
2017-11-12T19:33:41.796Z,11.43
2017-11-12T19:36:11.460Z,10.43
2017-11-12T19:38:39.800Z,11.87
2017-11-12T19:41:09.586Z,12.93
2017-11-12T19:43:37.872Z,9.73
2017-11-12T19:46:06.244Z,12.70
2017-11-12T19:48:35.885Z,11.27
2017-11-12T19:51:04.049Z,11.30
2017-11-12T19:53:32.397Z,19.40
2017-11-12T19:56:00.687Z,10.70
2017-11-12T19:58:30.486Z,10.40
2017-11-12T20:00:59.214Z,12.63
2017-11-12T20:03:27.495Z,10.90
2017-11-12T20:05:55.782Z,11.50
2017-11-12T20:08:24.130Z,10.80
2017-11-12T20:10:53.575Z,10.20
2017-11-12T20:13:22.989Z,11.60
2017-11-12T20:15:52.108Z,13.67
2017-11-12T20:18:21.460Z,10.87
2017-11-12T20:20:49.751Z,11.37
2017-11-12T20:23:19.595Z,12.03
2017-11-12T20:25:47.920Z,11.97
2017-11-12T20:28:16.196Z,10.67
2017-11-12T20:30:46.020Z,19.23
2017-11-12T20:33:14.194Z,12.27
2017-11-12T20:35:42.737Z,12.30
2017-11-12T20:38:12.198Z,12.07
2017-11-12T20:40:40.490Z,12.33
2017-11-12T20:43:08.781Z,13.40
2017-11-12T20:45:37.515Z,12.77
2017-11-12T20:48:05.792Z,12.13
2017-11-12T20:50:35.208Z,14.07
2017-11-12T20:53:04.662Z,12.97
2017-11-12T20:55:32.948Z,13.93
2017-11-12T20:58:02.024Z,17.13
2017-11-12T21:00:31.139Z,13.30
2017-11-12T21:02:59.426Z,13.40
2017-11-12T21:05:29.062Z,13.47
2017-11-12T21:07:57.839Z,13.30
2017-11-12T21:10:27.636Z,14.30
2017-11-12T21:12:55.917Z,13.80
2017-11-12T21:15:24.424Z,14.33
2017-11-12T21:17:52.708Z,16.97
2017-11-12T21:20:25.056Z,14.97
2017-11-12T21:22:53.332Z,14.33
2017-11-12T21:25:22.390Z,13.20
2017-11-12T21:27:51.653Z,13.07
2017-11-12T21:30:21.651Z,13.73
2017-11-12T21:32:52.313Z,13.37
2017-11-12T21:35:22.878Z,12.57
2017-11-12T21:37:54.583Z,14.30
2017-11-12T21:40:22.877Z,12.40
2017-11-12T21:42:52.520Z,13.77
2017-11-12T21:45:22.102Z,14.70
2017-11-12T21:47:51.394Z,13.00
2017-11-12T21:50:19.671Z,16.10
2017-11-12T21:52:48.040Z,14.73
2017-11-12T21:55:16.332Z,15.80
2017-11-12T21:57:44.606Z,15.70
2017-11-12T22:00:13.053Z,15.37
2017-11-12T22:02:42.858Z,15.83
2017-11-12T22:05:11.141Z,15.10
2017-11-12T22:07:40.839Z,13.10
2017-11-12T22:10:08.986Z,11.83
2017-11-12T22:12:37.291Z,12.13
2017-11-12T22:15:05.611Z,11.20
2017-11-12T22:17:34.662Z,12.50
2017-11-12T22:20:02.959Z,11.67
2017-11-12T22:22:32.415Z,9.97
2017-11-12T22:25:02.215Z,9.90
2017-11-12T22:27:31.907Z,10.83
2017-11-12T22:30:01.197Z,13.80
2017-11-12T22:32:29.480Z,9.50
2017-11-12T22:34:57.795Z,9.67
2017-11-12T22:37:26.072Z,9.37
2017-11-12T22:39:54.339Z,8.30
2017-11-12T22:42:22.667Z,10.23
2017-11-12T22:44:52.087Z,8.97
2017-11-12T22:47:20.387Z,10.10
2017-11-12T22:49:48.730Z,9.33
2017-11-12T22:52:16.996Z,8.67
2017-11-12T22:54:45.266Z,9.77
2017-11-12T22:57:13.618Z,7.63
2017-11-12T22:59:42.287Z,9.03
2017-11-12T23:02:11.697Z,8.80
2017-11-12T23:04:41.386Z,10.27
2017-11-12T23:07:10.890Z,9.93
2017-11-12T23:09:40.395Z,7.50
2017-11-12T23:12:08.981Z,8.27
2017-11-12T23:14:37.249Z,6.30
2017-11-12T23:17:06.288Z,7.23
2017-11-12T23:19:35.971Z,6.10
2017-11-12T23:22:05.261Z,7.43
2017-11-12T23:24:33.532Z,5.87
2017-11-12T23:27:02.156Z,5.90
2017-11-12T23:29:30.429Z,7.60
2017-11-12T23:31:58.716Z,6.53
2017-11-12T23:34:27.032Z,5.00
2017-11-12T23:36:55.299Z,7.00
2017-11-12T23:39:25.095Z,6.60
2017-11-12T23:41:53.427Z,5.27
2017-11-12T23:44:21.692Z,6.20
2017-11-12T23:46:51.324Z,4.43
2017-11-12T23:49:20.895Z,5.27
2017-11-12T23:51:49.051Z,4.37
2017-11-12T23:54:17.384Z,4.67
2017-11-12T23:56:45.695Z,4.00
2017-11-12T23:59:13.970Z,5.60
